createdAt,value
2023-05-02T00:01:20.028Z,4.57
2023-05-02T00:03:46.984Z,4.27
2023-05-02T00:06:14.036Z,4.10
2023-05-02T00:08:41.113Z,4.00
2023-05-02T00:11:07.992Z,4.07
2023-05-02T00:13:34.826Z,4.93
2023-05-02T00:16:01.682Z,3.63
2023-05-02T00:18:28.552Z,3.90
2023-05-02T00:20:56.592Z,4.20
2023-05-02T00:23:24.080Z,4.10
2023-05-02T00:25:50.999Z,4.80
2023-05-02T00:28:18.306Z,3.60
2023-05-02T00:30:46.280Z,4.07
2023-05-02T00:33:15.033Z,4.27
2023-05-02T00:35:42.170Z,4.33
2023-05-02T00:38:09.108Z,4.53
2023-05-02T00:40:48.066Z,3.93
2023-05-02T00:43:15.993Z,4.13
2023-05-02T00:45:44.572Z,3.60
2023-05-02T00:48:12.068Z,3.80
2023-05-02T00:50:40.644Z,3.50
2023-05-02T00:53:08.483Z,3.63
2023-05-02T00:55:35.957Z,3.13
2023-05-02T00:58:07.115Z,4.20
2023-05-02T01:00:56.683Z,4.23
2023-05-02T01:03:39.357Z,3.60
2023-05-02T01:06:24.958Z,3.47
2023-05-02T01:08:53.128Z,3.80
2023-05-02T01:11:36.510Z,3.83
2023-05-02T01:14:05.009Z,3.70
2023-05-02T01:16:34.472Z,3.37
2023-05-02T01:19:02.367Z,3.70
2023-05-02T01:21:29.839Z,3.50
2023-05-02T01:24:09.155Z,3.80
2023-05-02T01:26:36.476Z,4.20
2023-05-02T01:29:05.621Z,3.67
2023-05-02T01:31:35.818Z,3.37
2023-05-02T01:34:03.858Z,3.60
2023-05-02T01:36:32.578Z,4.13
2023-05-02T01:39:01.242Z,4.13
2023-05-02T01:41:29.763Z,4.70
2023-05-02T01:43:58.765Z,3.90
2023-05-02T01:46:28.668Z,3.97
2023-05-02T01:48:58.244Z,4.27
2023-05-02T01:51:29.786Z,3.87
2023-05-02T01:53:57.383Z,4.87
2023-05-02T01:56:25.416Z,4.60
2023-05-02T01:58:53.930Z,3.60
2023-05-02T02:01:21.585Z,3.87
2023-05-02T02:03:49.212Z,4.37
2023-05-02T02:06:16.683Z,4.40
2023-05-02T02:08:43.919Z,3.70
2023-05-02T02:11:14.035Z,3.57
2023-05-02T02:13:45.025Z,3.47
2023-05-02T02:16:13.518Z,4.33
2023-05-02T02:18:40.802Z,3.90
2023-05-02T02:21:10.123Z,3.80
2023-05-02T02:23:39.125Z,3.53
2023-05-02T02:26:07.561Z,4.23
2023-05-02T02:28:35.317Z,3.70
2023-05-02T02:31:02.645Z,3.50
2023-05-02T02:33:31.275Z,3.43
2023-05-02T02:36:00.778Z,3.83
2023-05-02T02:38:33.559Z,3.63
2023-05-02T02:41:04.778Z,3.70
2023-05-02T02:43:31.990Z,3.97
2023-05-02T02:45:59.270Z,3.60
2023-05-02T02:48:31.258Z,3.67
2023-05-02T02:50:59.447Z,3.40
2023-05-02T02:53:28.396Z,4.17
2023-05-02T02:56:00.340Z,4.10
2023-05-02T02:58:43.217Z,4.27
2023-05-02T04:01:57.648Z,4.10
2023-05-02T04:04:24.873Z,4.50
2023-05-02T04:06:52.231Z,3.87
2023-05-02T04:09:25.261Z,4.00
2023-05-02T04:11:52.851Z,3.70
2023-05-02T04:14:20.234Z,4.00
2023-05-02T04:16:49.630Z,4.13
2023-05-02T04:19:18.389Z,4.60
2023-05-02T04:21:46.019Z,3.93
2023-05-02T04:24:13.913Z,3.63
2023-05-02T04:26:41.878Z,3.30
2023-05-02T04:29:09.060Z,4.10
2023-05-02T04:31:36.749Z,4.40
2023-05-02T04:34:04.462Z,4.97
2023-05-02T04:36:32.088Z,4.13
2023-05-02T04:38:59.335Z,4.87
2023-05-02T04:41:26.863Z,4.40
2023-05-02T04:43:54.187Z,4.90
2023-05-02T04:46:21.524Z,5.03
2023-05-02T04:48:48.710Z,4.20
2023-05-02T04:51:17.164Z,5.10
2023-05-02T04:53:44.492Z,5.70
2023-05-02T04:56:12.088Z,5.07
2023-05-02T04:58:39.506Z,5.00
2023-05-02T05:01:06.706Z,4.87
2023-05-02T05:03:33.961Z,5.17
2023-05-02T05:06:02.593Z,4.80
2023-05-02T05:08:29.890Z,5.13
2023-05-02T05:10:57.484Z,5.17
2023-05-02T05:13:24.648Z,5.53
2023-05-02T05:15:52.343Z,5.47
2023-05-02T05:18:19.639Z,5.80
2023-05-02T05:20:46.787Z,5.40
2023-05-02T05:23:15.003Z,5.40
2023-05-02T05:25:44.973Z,5.50
2023-05-02T05:28:12.935Z,5.47
2023-05-02T05:30:40.403Z,5.53
2023-05-02T05:33:07.718Z,5.53
2023-05-02T05:35:35.123Z,5.67
2023-05-02T05:38:02.346Z,5.33
2023-05-02T05:40:29.139Z,4.43
2023-05-02T05:42:56.232Z,5.60
2023-05-02T05:45:22.980Z,5.23
2023-05-02T05:47:49.950Z,6.07
2023-05-02T05:50:16.795Z,6.13
2023-05-02T05:52:43.937Z,5.20
2023-05-02T05:55:11.087Z,5.10
2023-05-02T05:57:37.943Z,5.50
2023-05-02T06:00:05.392Z,6.27
2023-05-02T06:02:32.362Z,7.70
2023-05-02T06:04:59.323Z,10.30
2023-05-02T06:07:26.342Z,8.60
2023-05-02T06:09:54.438Z,8.43
2023-05-02T06:12:21.629Z,7.07
2023-05-02T06:14:48.417Z,6.10
2023-05-02T06:17:15.558Z,6.20
2023-05-02T06:19:42.436Z,6.43
2023-05-02T06:22:13.052Z,6.30
2023-05-02T06:24:40.263Z,7.20
2023-05-02T06:27:07.427Z,6.40
2023-05-02T06:29:34.587Z,6.77
2023-05-02T06:32:01.870Z,6.57
2023-05-02T06:34:29.223Z,6.40
2023-05-02T06:36:56.836Z,6.63
2023-05-02T06:39:24.096Z,6.87
2023-05-02T06:41:51.343Z,6.10
2023-05-02T06:44:18.117Z,7.00
2023-05-02T06:46:44.974Z,6.57
2023-05-02T06:49:11.783Z,6.67
2023-05-02T06:51:38.619Z,7.20
2023-05-02T06:54:06.457Z,7.03
2023-05-02T06:56:33.492Z,7.27
2023-05-02T06:59:00.816Z,6.37
2023-05-02T07:01:27.779Z,6.50
2023-05-02T07:03:54.734Z,6.57
2023-05-02T07:06:21.983Z,5.83
2023-05-02T07:08:51.088Z,6.03
2023-05-02T07:11:17.936Z,6.17
2023-05-02T07:13:44.798Z,6.10
2023-05-02T07:16:11.744Z,5.10
2023-05-02T07:18:41.076Z,6.00
2023-05-02T07:21:08.704Z,6.30
2023-05-02T07:23:35.699Z,5.73
2023-05-02T07:26:06.453Z,7.03
2023-05-02T07:28:34.074Z,6.80
2023-05-02T07:31:01.180Z,6.23
2023-05-02T07:33:28.166Z,7.07
2023-05-02T07:35:56.543Z,7.70
2023-05-02T07:38:23.298Z,6.77
2023-05-02T07:40:50.095Z,8.33
2023-05-02T07:43:16.893Z,8.10
2023-05-02T07:45:43.697Z,8.00
2023-05-02T07:48:10.698Z,7.80
2023-05-02T07:50:37.519Z,7.70
2023-05-02T07:53:04.275Z,8.90
2023-05-02T07:55:33.176Z,8.90
2023-05-02T07:58:00.518Z,11.60
2023-05-02T08:00:27.686Z,8.00
2023-05-02T08:02:54.659Z,8.63
2023-05-02T08:05:21.824Z,10.67
2023-05-02T08:07:48.768Z,9.97
2023-05-02T08:10:15.682Z,9.07
2023-05-02T08:12:42.985Z,8.47
2023-05-02T08:15:13.234Z,10.30
2023-05-02T08:17:40.186Z,8.40
2023-05-02T08:20:07.776Z,9.20
2023-05-02T08:22:34.576Z,7.80
2023-05-02T08:25:01.426Z,8.63
2023-05-02T08:27:28.266Z,8.70
2023-05-02T08:29:55.661Z,9.10
2023-05-02T08:32:23.706Z,9.73
2023-05-02T08:34:50.887Z,8.13
2023-05-02T08:37:18.500Z,7.70
2023-05-02T08:39:45.375Z,9.57
2023-05-02T08:42:12.270Z,8.47
2023-05-02T08:44:39.131Z,8.57
2023-05-02T08:47:07.298Z,8.40
2023-05-02T08:49:36.283Z,9.90
2023-05-02T08:52:04.989Z,12.80
2023-05-02T08:54:32.355Z,11.20
2023-05-02T08:57:03.513Z,8.20
2023-05-02T08:59:30.850Z,9.13
2023-05-02T09:02:13.257Z,10.47
2023-05-02T09:04:45.005Z,10.70
2023-05-02T09:07:12.248Z,10.17
2023-05-02T09:09:39.515Z,10.10
2023-05-02T09:12:06.681Z,11.17
2023-05-02T09:14:34.017Z,10.10
2023-05-02T09:17:01.978Z,10.07
2023-05-02T09:19:29.489Z,10.40
2023-05-02T09:22:01.291Z,10.00
2023-05-02T09:24:29.562Z,10.60
2023-05-02T09:26:58.935Z,11.37
2023-05-02T09:29:28.277Z,10.33
2023-05-02T09:31:56.815Z,10.93
2023-05-02T09:34:24.475Z,10.57
2023-05-02T09:36:54.238Z,10.53
2023-05-02T09:39:25.567Z,10.90
2023-05-02T09:41:54.187Z,11.43
2023-05-02T09:44:23.055Z,10.70
2023-05-02T09:46:52.034Z,9.40
2023-05-02T09:49:19.630Z,10.43
2023-05-02T09:51:48.257Z,11.77
2023-05-02T09:54:34.053Z,10.67
2023-05-02T09:57:01.979Z,9.80
2023-05-02T09:59:31.094Z,11.30
2023-05-02T10:02:00.264Z,11.17
2023-05-02T10:04:28.562Z,11.33
2023-05-02T10:06:56.313Z,12.37
2023-05-02T10:09:23.663Z,12.00
2023-05-02T10:11:54.079Z,11.63
2023-05-02T10:14:23.063Z,11.70
2023-05-02T10:17:05.297Z,10.43
2023-05-02T10:19:48.912Z,10.40
2023-05-02T10:22:19.458Z,10.30
2023-05-02T10:24:49.846Z,10.43
2023-05-02T10:27:17.061Z,10.90
2023-05-02T10:29:44.860Z,9.63
2023-05-02T10:32:12.741Z,9.50
2023-05-02T10:34:41.613Z,10.37
2023-05-02T10:37:08.819Z,10.90
2023-05-02T10:39:36.098Z,10.30
2023-05-02T10:42:04.697Z,10.23
2023-05-02T10:44:34.367Z,8.93
2023-05-02T10:47:01.542Z,10.37
2023-05-02T10:49:29.923Z,10.30
2023-05-02T10:51:56.890Z,9.50
2023-05-02T10:54:25.005Z,10.60
2023-05-02T10:57:08.456Z,11.03
2023-05-02T10:59:39.135Z,11.60
2023-05-02T11:02:31.070Z,10.70
2023-05-02T11:05:01.744Z,10.90
2023-05-02T11:07:32.272Z,10.83
2023-05-02T11:10:17.997Z,10.90
2023-05-02T11:12:53.947Z,10.13
2023-05-02T11:15:28.139Z,9.60
2023-05-02T11:18:03.217Z,9.60
2023-05-02T11:20:31.852Z,10.60
2023-05-02T11:23:25.337Z,9.40
2023-05-02T11:25:57.340Z,9.13
2023-05-02T11:28:42.681Z,8.10
2023-05-02T11:31:30.791Z,8.30
2023-05-02T11:34:02.953Z,7.90
2023-05-02T11:36:36.404Z,7.50
2023-05-02T11:39:05.829Z,7.60
2023-05-02T11:41:41.964Z,7.10
2023-05-02T11:44:08.871Z,9.00
2023-05-02T11:46:39.972Z,8.57
2023-05-02T11:49:09.712Z,7.30
2023-05-02T11:51:37.468Z,9.43
2023-05-02T11:54:07.605Z,8.43
2023-05-02T11:56:34.824Z,7.50
2023-05-02T11:59:03.376Z,7.97
2023-05-02T12:01:31.429Z,5.60
2023-05-02T12:04:08.322Z,8.65
2023-05-02T12:06:36.655Z,8.30
2023-05-02T12:09:08.740Z,8.95
2023-05-02T12:11:36.352Z,8.50
2023-05-02T12:14:04.242Z,9.40
2023-05-02T12:16:32.452Z,8.63
2023-05-02T12:19:01.202Z,8.77
2023-05-02T12:21:30.112Z,8.67
2023-05-02T12:23:57.486Z,8.63
2023-05-02T12:26:29.498Z,8.87
2023-05-02T12:28:57.138Z,9.70
2023-05-02T12:31:24.852Z,9.77
2023-05-02T12:33:52.872Z,9.87
2023-05-02T12:36:19.924Z,8.40
2023-05-02T12:38:53.091Z,9.07
2023-05-02T12:41:33.383Z,8.47
2023-05-02T12:44:01.548Z,7.60
2023-05-02T12:46:28.535Z,8.40
2023-05-02T12:49:09.316Z,8.23
2023-05-02T12:51:37.018Z,7.33
2023-05-02T12:54:04.414Z,8.43
2023-05-02T12:56:38.386Z,8.70
2023-05-02T12:59:05.842Z,8.03
2023-05-02T13:01:35.111Z,7.60
2023-05-02T13:04:02.872Z,8.03
2023-05-02T13:06:30.310Z,8.10
2023-05-02T13:08:58.190Z,7.97
2023-05-02T13:11:25.401Z,9.37
2023-05-02T13:13:52.611Z,8.23
2023-05-02T13:16:19.892Z,8.13
2023-05-02T13:18:48.053Z,8.63
2023-05-02T13:21:15.105Z,8.10
2023-05-02T13:23:44.136Z,6.63
2023-05-02T13:26:11.690Z,6.70
2023-05-02T13:28:38.718Z,9.60
2023-05-02T13:31:05.689Z,10.63
2023-05-02T13:33:32.658Z,11.30
2023-05-02T13:35:59.428Z,11.97
2023-05-02T13:38:27.040Z,12.00
2023-05-02T13:40:54.240Z,11.70
2023-05-02T13:43:21.145Z,11.53
2023-05-02T13:45:48.924Z,11.57
2023-05-02T13:48:15.990Z,9.50
2023-05-02T13:50:43.102Z,9.37
2023-05-02T13:53:09.944Z,9.30
2023-05-02T13:55:36.992Z,10.87
2023-05-02T13:58:03.724Z,8.50
2023-05-02T14:00:30.629Z,7.03
2023-05-02T14:02:57.616Z,7.93
2023-05-02T14:05:25.678Z,7.23
2023-05-02T14:07:52.552Z,7.57
2023-05-02T14:10:19.526Z,6.63
2023-05-02T14:12:46.507Z,6.90
2023-05-02T14:15:13.427Z,7.90
2023-05-02T14:17:40.266Z,9.30
2023-05-02T14:20:10.648Z,8.03
2023-05-02T14:22:37.696Z,6.87
2023-05-02T14:25:05.951Z,6.90
2023-05-02T14:27:32.901Z,7.23
2023-05-02T14:29:59.744Z,6.73
2023-05-02T14:32:27.109Z,6.63
2023-05-02T14:34:54.235Z,6.20
2023-05-02T14:37:21.027Z,5.97
2023-05-02T14:39:51.205Z,5.90
2023-05-02T14:42:19.654Z,6.70
2023-05-02T14:44:46.551Z,6.20
2023-05-02T14:47:13.496Z,6.77
2023-05-02T14:49:41.003Z,6.73
2023-05-02T14:52:07.921Z,7.30
2023-05-02T14:54:34.968Z,6.87
2023-05-02T14:57:03.576Z,8.03
2023-05-02T14:59:31.428Z,8.47
2023-05-02T15:01:58.468Z,8.20
2023-05-02T15:04:27.413Z,10.10
2023-05-02T15:06:55.483Z,8.87
2023-05-02T15:09:23.458Z,8.07
2023-05-02T15:11:50.245Z,9.87
2023-05-02T15:14:17.127Z,8.77
2023-05-02T15:16:44.111Z,8.70
2023-05-02T15:19:11.115Z,9.23
2023-05-02T15:21:38.033Z,8.63
2023-05-02T15:24:05.898Z,8.90
2023-05-02T15:26:32.932Z,9.80
2023-05-02T15:28:59.778Z,9.60
2023-05-02T15:31:26.934Z,8.57
2023-05-02T15:33:53.744Z,8.50
2023-05-02T15:36:20.530Z,8.50
2023-05-02T15:38:47.477Z,8.07
2023-05-02T15:41:14.298Z,9.43
2023-05-02T15:43:41.136Z,8.03
2023-05-02T15:46:08.250Z,8.10
2023-05-02T15:48:35.277Z,7.70
2023-05-02T15:51:03.173Z,7.60
2023-05-02T15:53:30.075Z,7.10
2023-05-02T15:55:57.180Z,6.93
2023-05-02T15:58:24.044Z,7.70
2023-05-02T16:00:52.547Z,6.40
2023-05-02T16:03:19.885Z,7.70
2023-05-02T16:05:46.905Z,7.43
2023-05-02T16:08:14.288Z,6.97
2023-05-02T16:10:43.352Z,7.07
2023-05-02T16:13:10.519Z,6.67
2023-05-02T16:15:38.079Z,6.90
2023-05-02T16:18:05.101Z,7.70
2023-05-02T16:20:36.434Z,7.20
2023-05-02T16:23:04.587Z,6.37
2023-05-02T16:25:31.808Z,6.63
2023-05-02T16:27:58.676Z,5.57
2023-05-02T16:30:27.094Z,5.50
2023-05-02T16:32:54.547Z,5.10
2023-05-02T16:35:21.399Z,6.00
2023-05-02T16:37:48.363Z,5.10
2023-05-02T16:40:15.359Z,4.80
2023-05-02T16:42:42.258Z,4.20
2023-05-02T16:45:09.537Z,4.90
2023-05-02T16:47:36.803Z,4.00
2023-05-02T16:50:04.049Z,3.97
2023-05-02T16:52:31.291Z,4.10
2023-05-02T16:54:58.116Z,3.50
2023-05-02T16:57:25.036Z,3.33
2023-05-02T16:59:52.653Z,3.50
2023-05-02T17:02:20.937Z,4.00
2023-05-02T17:04:49.737Z,3.50
2023-05-02T17:07:17.246Z,3.50
2023-05-02T17:09:44.619Z,3.40
2023-05-02T17:12:12.305Z,3.80
2023-05-02T17:14:41.141Z,2.50
2023-05-02T17:17:08.633Z,2.97
2023-05-02T17:19:37.077Z,2.93
2023-05-02T17:22:05.267Z,3.50
2023-05-02T17:24:33.087Z,3.57
2023-05-02T17:27:00.959Z,2.97
2023-05-02T17:29:27.815Z,3.73
2023-05-02T17:31:57.035Z,3.40
2023-05-02T17:34:28.417Z,3.27
2023-05-02T17:36:56.023Z,3.40
2023-05-02T17:39:23.367Z,3.43
2023-05-02T17:41:50.242Z,3.33
2023-05-02T17:44:17.221Z,3.27
2023-05-02T17:46:44.198Z,3.33
2023-05-02T17:49:11.485Z,3.63
2023-05-02T17:51:38.438Z,3.50
2023-05-02T17:54:05.452Z,3.70
2023-05-02T17:56:34.967Z,3.67
2023-05-02T17:59:01.870Z,3.77
2023-05-02T18:01:28.627Z,3.80
2023-05-02T18:03:55.608Z,4.00
2023-05-02T18:06:22.547Z,4.33
2023-05-02T18:08:49.678Z,4.60
2023-05-02T18:11:18.792Z,4.30
2023-05-02T18:13:46.362Z,5.50
2023-05-02T18:16:14.305Z,4.57
2023-05-02T18:18:41.600Z,4.47
2023-05-02T18:21:09.721Z,5.03
2023-05-02T18:23:36.672Z,5.13
2023-05-02T18:26:03.828Z,5.60
2023-05-02T18:28:30.794Z,6.73
2023-05-02T18:30:57.623Z,5.27
2023-05-02T18:33:24.461Z,4.67
2023-05-02T18:35:51.504Z,5.97
2023-05-02T18:38:19.716Z,5.70
2023-05-02T18:40:46.559Z,5.57
2023-05-02T18:43:13.398Z,5.20
2023-05-02T18:45:40.528Z,5.00
2023-05-02T18:48:07.524Z,5.10
2023-05-02T18:50:34.606Z,5.33
2023-05-02T18:53:02.964Z,5.63
2023-05-02T18:55:33.484Z,4.83
2023-05-02T18:58:02.067Z,4.77
2023-05-02T19:00:31.290Z,4.83
2023-05-02T19:02:58.460Z,4.73
2023-05-02T19:05:27.188Z,4.83
2023-05-02T19:07:55.063Z,4.13
2023-05-02T19:10:22.061Z,5.83
2023-05-02T19:12:59.389Z,4.90
2023-05-02T19:15:31.781Z,5.47
2023-05-02T19:18:01.416Z,5.90
2023-05-02T19:20:33.939Z,5.63
2023-05-02T19:23:18.395Z,5.80
2023-05-02T19:25:47.146Z,5.57
2023-05-02T19:28:15.901Z,5.80
2023-05-02T19:30:45.434Z,6.10
2023-05-02T19:33:12.573Z,6.67
2023-05-02T19:35:39.824Z,6.07
2023-05-02T19:38:06.742Z,5.53
2023-05-02T19:40:34.656Z,6.40
2023-05-02T19:43:02.557Z,6.20
2023-05-02T19:45:29.441Z,5.80
2023-05-02T19:47:56.462Z,6.73
2023-05-02T19:50:25.252Z,5.47
2023-05-02T19:52:52.119Z,6.00
2023-05-02T19:55:20.824Z,6.00
2023-05-02T19:57:48.845Z,6.17
2023-05-02T20:00:16.132Z,6.20
2023-05-02T20:02:43.228Z,6.87
2023-05-02T20:05:10.773Z,5.33
2023-05-02T20:07:37.719Z,6.40
2023-05-02T20:10:05.392Z,5.90
2023-05-02T20:12:32.390Z,6.23
2023-05-02T20:14:59.164Z,6.23
2023-05-02T20:17:26.058Z,6.27
2023-05-02T20:19:52.906Z,6.17
2023-05-02T20:22:19.680Z,6.70
2023-05-02T20:24:46.475Z,6.27
2023-05-02T20:27:13.536Z,6.50
2023-05-02T20:29:40.523Z,6.70
2023-05-02T20:32:08.353Z,7.43
2023-05-02T20:34:35.842Z,6.50
2023-05-02T20:37:06.417Z,6.27
2023-05-02T20:39:33.470Z,6.20
2023-05-02T20:42:02.141Z,6.57
2023-05-02T20:44:30.109Z,6.90
2023-05-02T20:46:57.031Z,6.87
2023-05-02T20:49:23.938Z,7.53
2023-05-02T20:51:51.659Z,7.37
2023-05-02T20:54:18.959Z,8.40
2023-05-02T20:56:45.968Z,6.80
2023-05-02T20:59:12.835Z,7.13
2023-05-02T21:01:39.752Z,6.47
2023-05-02T21:04:06.718Z,7.00
2023-05-02T21:06:34.033Z,7.03
2023-05-02T21:09:02.187Z,6.73
2023-05-02T21:11:29.211Z,7.80
2023-05-02T21:13:56.090Z,7.63
2023-05-02T21:16:23.528Z,7.23
2023-05-02T21:18:50.470Z,7.13
2023-05-02T21:21:17.327Z,7.60
2023-05-02T21:23:44.267Z,7.30
2023-05-02T21:26:11.269Z,7.93
2023-05-02T21:28:39.675Z,7.57
2023-05-02T21:31:07.985Z,7.90
2023-05-02T21:33:34.918Z,7.77
2023-05-02T21:36:01.740Z,6.60
2023-05-02T21:38:29.041Z,6.27
2023-05-02T21:40:56.071Z,7.13
2023-05-02T21:43:22.984Z,7.30
2023-05-02T21:45:50.350Z,7.30
2023-05-02T21:48:17.597Z,6.90
2023-05-02T21:50:45.045Z,6.90
2023-05-02T21:53:12.567Z,7.60
2023-05-02T21:55:39.768Z,7.30
2023-05-02T21:58:08.251Z,7.53
2023-05-02T22:00:38.389Z,6.70
2023-05-02T22:03:08.490Z,6.50
2023-05-02T22:05:39.911Z,6.23
2023-05-02T22:08:07.960Z,5.70
2023-05-02T22:10:35.681Z,6.53
2023-05-02T22:13:03.360Z,5.73
2023-05-02T22:15:30.812Z,6.13
2023-05-02T22:17:58.516Z,6.70
2023-05-02T22:20:26.220Z,6.30
2023-05-02T22:22:53.175Z,6.07
2023-05-02T22:25:20.027Z,6.17
2023-05-02T22:27:46.958Z,5.73
2023-05-02T22:30:13.828Z,5.70
2023-05-02T22:32:41.414Z,6.13
2023-05-02T22:35:09.086Z,6.67
2023-05-02T22:37:35.861Z,7.17
2023-05-02T22:40:03.549Z,6.07
2023-05-02T22:42:30.568Z,6.30
2023-05-02T22:44:57.312Z,6.60
2023-05-02T22:47:25.166Z,6.80
2023-05-02T22:49:52.702Z,6.17
2023-05-02T22:52:20.781Z,6.73
2023-05-02T22:54:47.801Z,6.90
2023-05-02T22:57:14.595Z,6.27
2023-05-02T22:59:41.382Z,7.50
2023-05-02T23:02:11.720Z,6.13
2023-05-02T23:04:38.533Z,7.40
2023-05-02T23:07:05.343Z,6.27
2023-05-02T23:09:32.114Z,6.87
2023-05-02T23:11:58.873Z,5.83
2023-05-02T23:14:25.866Z,6.70
2023-05-02T23:16:53.873Z,6.30
2023-05-02T23:19:20.812Z,6.03
2023-05-02T23:21:47.575Z,5.97
2023-05-02T23:24:14.603Z,6.17
2023-05-02T23:26:41.314Z,6.27
2023-05-02T23:29:08.317Z,6.03
2023-05-02T23:31:35.106Z,6.37
2023-05-02T23:34:02.038Z,5.67
2023-05-02T23:36:28.847Z,5.70
2023-05-02T23:38:56.266Z,5.57
2023-05-02T23:41:23.392Z,6.30
2023-05-02T23:43:50.250Z,6.60
2023-05-02T23:46:17.005Z,6.70
2023-05-02T23:48:43.746Z,6.17
2023-05-02T23:51:10.913Z,6.60
2023-05-02T23:53:37.689Z,6.00
2023-05-02T23:56:04.764Z,5.40
2023-05-02T23:58:31.480Z,6.17
